Latest Weather Observations for Hobart Airport

IDT60901

Issued at 4:31 am EST Wednesday 23 September 2020 (issued every 10 minutes, with the page automatically refreshed every 10 minutes)

About weather observations | Map of Hobart area stations | Latest observations for Hobart area | Other Formats
Station Details ID: 094008 Name: HOBART AIRPORT Lat: -42.83 Lon: 147.50 Height: 4.0 m
Data from the previous 72 hours. | See also: Recent months at Hobart Airport
Date/Time
EST
Temp
°C
App
Temp
°C
Dew
Point
°C
Rel
Hum
%
Delta-T
°C
Wind Press
QNH
hPa
Press
MSL
hPa
Rain since
9am
mm
Dir  Spd
km/h
Gust
km/h
Spd
kts
Gust
kts
23/04:30am 10.8 6.1 3.3 60 3.3 NNW 17 30 9 16 995.0 995.1 0.0
23/04:00am 10.4 5.5 4.2 65 2.8 NNW 19 26 10 14 994.6 994.7 0.0
23/03:30am 10.4 4.4 3.4 62 3.1 N 24 37 13 20 994.7 994.8 0.0
23/03:00am 10.1 4.2 3.8 65 2.8 NNW 24 37 13 20 994.7 994.8 0.0
23/02:30am 10.4 4.0 3.4 62 3.1 NNW 26 39 14 21 994.8 994.9 0.0
23/02:00am 10.3 5.1 3.8 64 2.9 NNW 20 32 11 17 995.1 995.2 0.0
23/01:30am 10.2 5.0 3.7 64 2.9 NNW 20 32 11 17 995.4 995.5 0.0
23/01:00am 10.4 5.4 3.6 63 3.0 NNW 19 30 10 16 995.7 995.8 0.0
23/12:30am 10.6 5.6 4.4 65 2.8 NNW 20 32 11 17 995.7 995.8 0.0
23/12:00am 11.0 5.2 4.6 64 2.9 NW 24 30 13 16 995.9 996.0 0.0
 
Date/Time
EST
Temp
°C
App
Temp
°C
Dew
Point
°C
Rel
Hum
%
Delta-T
°C
Wind Press
QNH
hPa
Press
MSL
hPa
Rain since
9am
mm
Dir  Spd
km/h
Gust
km/h
Spd
kts
Gust
kts
22/11:30pm 11.4 4.8 4.4 62 3.2 NW 28 33 15 18 996.1 996.2 0.0
22/11:00pm 11.7 5.8 4.0 59 3.5 NW 24 33 13 18 996.0 996.1 0.0
22/10:30pm 11.6 6.4 3.8 59 3.5 NW 20 26 11 14 995.8 995.9 0.0
22/10:00pm 11.4 6.9 4.4 62 3.2 NNW 17 22 9 12 995.5 995.6 0.0
22/09:30pm 11.3 7.6 4.5 63 3.1 NNW 13 20 7 11 995.5 995.6 0.0
22/09:00pm 11.1 7.3 5.8 70 2.5 NNW 15 20 8 11 995.4 995.5 0.0
22/08:30pm 12.0 7.4 5.4 64 3.1 NNW 19 32 10 17 995.5 995.6 0.0
22/08:00pm 12.3 8.5 5.7 64 3.1 NNW 15 30 8 16 995.3 995.4 0.0
22/07:30pm 12.3 7.8 6.2 66 2.9 NNW 19 28 10 15 995.2 995.3 0.0
22/07:00pm 12.5 8.8 6.2 65 3.0 N 15 26 8 14 995.1 995.2 0.0
22/06:30pm 13.3 9.1 5.7 60 3.6 NNW 17 30 9 16 994.8 994.9 0.0
22/06:00pm 13.5 9.5 6.5 62 3.4 NW 17 26 9 14 994.6 994.7 0.0
22/05:30pm 14.3 10.5 5.8 56 4.0 NNW 15 20 8 11 994.3 994.4 0.0
22/05:00pm 14.9 12.0 6.3 56 4.2 NW 11 13 6 7 994.1 994.2 0.0
22/04:30pm 15.3 10.1 5.5 52 4.7 WNW 22 33 12 18 993.9 994.0 0.0
22/04:00pm 15.3 11.2 6.1 54 4.5 NNW 17 28 9 15 993.5 993.6 0.0
22/03:30pm 15.4 10.0 6.2 54 4.5 NW 24 33 13 18 993.5 993.6 0.0
22/03:00pm 16.6 10.4 4.1 43 5.9 WNW 26 35 14 19 993.3 993.4 0.0
22/02:30pm 16.8 10.4 3.2 40 6.2 NW 26 41 14 22 993.2 993.3 0.0
22/02:00pm 17.3 10.6 3.4 39 6.5 NW 28 39 15 21 993.1 993.2 0.0
22/01:33pm 17.4 10.0 3.9 40 6.3 NW 32 50 17 27 993.0 993.1 0.0
22/01:30pm 17.3 9.2 3.4 39 6.4 NW 35 50 19 27 993.0 993.1 0.0
22/01:00pm 18.0 11.5 4.8 41 6.4 NW 28 37 15 20 993.1 993.2 0.0
22/12:30pm 17.2 9.7 4.4 42 6.0 NW 33 46 18 25 993.3 993.4 0.0
22/12:00pm 18.1 10.2 4.1 39 6.7 NW 35 50 19 27 993.5 993.6 0.0
22/11:30am 16.6 10.7 4.1 43 5.8 NNW 24 33 13 18 993.9 994.0 0.0
22/11:00am 17.2 10.6 4.4 42 6.1 NW 28 33 15 18 993.9 994.0 0.0
22/10:30am 16.4 10.5 3.8 43 5.8 NW 24 32 13 17 994.3 994.4 0.0
22/10:00am 16.3 11.4 4.2 44 5.7 NW 19 26 10 14 994.5 994.6 0.0
22/09:30am 16.2 10.9 4.9 47 5.4 NW 22 30 12 16 994.6 994.7 0.0
22/09:00am 15.1 10.5 3.6 46 5.3 WNW 17 30 9 16 994.8 994.9 0.6
22/08:30am 14.5 10.0 4.2 50 4.7 NW 17 22 9 12 994.9 995.0 0.6
22/08:00am 13.6 9.5 4.3 53 4.3 NNW 15 22 8 12 995.2 995.3 0.6
22/07:30am 13.1 9.0 4.4 55 4.0 NW 15 19 8 10 995.3 995.4 0.6
22/07:00am 12.4 9.2 5.1 61 3.4 NNW 11 15 6 8 995.4 995.5 0.6
22/06:30am 10.9 7.8 5.5 69 2.5 N 11 15 6 8 995.5 995.6 0.6
22/06:00am 10.7 7.0 6.2 74 2.1 N 15 19 8 10 995.5 995.6 0.6
22/05:30am 10.5 7.6 6.5 76 1.9 NNW 11 15 6 8 995.4 995.5 0.6
22/05:00am 10.8 7.5 6.6 75 2.0 N 13 17 7 9 995.4 995.5 0.6
22/04:30am 11.1 7.4 6.2 72 2.3 N 15 22 8 12 995.4 995.5 0.6
22/04:00am 11.6 7.9 6.3 70 2.5 N 15 20 8 11 995.3 995.4 0.6
22/03:30am 11.5 7.1 6.5 71 2.4 N 19 30 10 16 995.7 995.8 0.6
22/03:00am 11.4 7.3 6.3 71 2.4 N 17 26 9 14 996.1 996.2 0.6
22/02:30am 11.4 7.3 6.1 70 2.5 N 17 26 9 14 996.5 996.6 0.6
22/02:00am 10.2 7.6 5.9 74 2.0 N 9 19 5 10 997.5 997.5 0.6
22/01:30am 9.2 7.1 5.7 79 1.6 SSE 6 9 3 5 998.2 998.2 0.6
22/01:00am 10.0 7.4 5.9 75 1.9 NNE 9 13 5 7 998.5 998.5 0.6
22/12:30am 9.9 7.2 5.8 75 1.9 NNE 9 15 5 8 998.5 998.5 0.6
22/12:00am 9.5 6.4 5.6 76 1.8 ENE 11 15 6 8 998.6 998.6 0.6
 
Date/Time
EST
Temp
°C
App
Temp
°C
Dew
Point
°C
Rel
Hum
%
Delta-T
°C
Wind Press
QNH
hPa
Press
MSL
hPa
Rain since
9am
mm
Dir  Spd
km/h
Gust
km/h
Spd
kts
Gust
kts
21/11:30pm 9.0 6.5 5.0 76 1.8 NE 7 9 4 5 999.0 999.0 0.6
21/11:00pm 9.6 6.7 4.7 71 2.2 NNE 9 11 5 6 999.2 999.2 0.6
21/10:30pm 8.9 7.5 5.6 80 1.5 E 2 9 1 5 999.2 999.2 0.6
21/10:00pm 10.0 7.8 6.4 78 1.7 WNW 7 9 4 5 999.5 999.5 0.6
21/09:30pm 10.7 8.2 6.5 75 2.0 NNE 9 11 5 6 999.5 999.5 0.6
21/09:00pm 11.1 8.6 6.7 74 2.1 N 9 11 5 6 999.4 999.4 0.6
21/08:30pm 12.1 8.7 6.0 66 2.9 NNW 13 20 7 11 999.5 999.5 0.6
21/08:00pm 12.1 9.1 7.6 74 2.2 NNW 13 19 7 10 999.6 999.6 0.6
21/07:30pm 12.1 8.7 7.6 74 2.2 N 15 20 8 11 999.3 999.3 0.6
21/07:00pm 13.4 9.2 7.3 66 3.0 NNW 19 28 10 15 999.4 999.4 0.6
21/06:30pm 14.7 9.8 6.7 58 3.9 NNW 22 37 12 20 998.9 998.9 0.6
21/06:00pm 15.6 11.8 7.4 58 4.1 N 17 24 9 13 998.4 998.4 0.6
21/05:30pm 16.1 11.5 6.3 52 4.8 N 20 32 11 17 997.8 997.8 0.6
21/05:00pm 17.9 14.1 7.5 50 5.3 N 17 24 9 13 997.5 997.5 0.6
21/04:30pm 19.2 15.0 4.0 36 7.2 NW 15 20 8 11 997.3 997.3 0.6
21/04:00pm 19.2 14.3 2.1 32 7.9 NW 17 22 9 12 997.4 997.4 0.6
21/03:30pm 19.1 13.6 1.6 31 7.9 NW 20 28 11 15 997.4 997.4 0.6
21/03:00pm 19.4 12.8 2.1 31 8.0 NW 26 33 14 18 997.3 997.3 0.6
21/02:30pm 19.4 12.8 2.1 31 7.9 NW 26 35 14 19 997.3 997.3 0.6
21/02:00pm 19.1 11.6 0.9 29 8.2 NW 30 39 16 21 997.9 997.9 0.6
21/01:30pm 19.2 11.5 2.1 32 7.8 WNW 32 41 17 22 998.3 998.3 0.6
21/01:00pm 18.8 12.5 3.9 37 7.1 NW 26 35 14 19 998.5 998.5 0.4
21/12:30pm 18.4 11.3 3.6 37 6.9 NW 30 37 16 20 998.7 998.7 0.4
21/12:00pm 18.4 11.3 3.6 37 7.0 WNW 30 46 16 25 998.7 998.7 0.4
21/11:30am 17.6 10.0 4.1 40 6.4 WNW 33 41 18 22 999.0 999.0 0.4
21/11:00am 16.8 11.6 7.3 53 4.8 WNW 24 33 13 18 998.7 998.7 0.4
21/10:30am 15.9 11.8 8.5 61 3.8 NW 20 32 11 17 999.3 999.3 0.4
21/10:00am 14.8 12.0 10.0 73 2.5 NNW 15 19 8 10 998.6 998.6 0.4
21/09:30am 13.3 9.5 9.2 76 2.1 N 19 32 10 17 1000.3 1000.3 0.2
21/09:00am 13.5 9.2 9.4 76 2.1 NNW 22 37 12 20 1000.4 1000.4 1.4
21/08:47am 13.9 8.7 10.3 79 1.9 NW 28 37 15 20 1000.4 1000.4 1.4
21/08:38am 14.2 8.1 10.4 78 2.0 WNW 33 57 18 31 1000.1 1000.1 1.4
21/08:32am 14.4 7.3 10.8 79 1.9 NW 39 63 21 34 999.8 999.8 1.4
21/08:30am 14.6 7.8 10.8 78 2.0 NW 37 63 20 34 999.9 999.9 1.2
21/08:28am 14.8 9.0 11.5 80 1.8 NNW 33 63 18 34 999.9 999.9 1.2
21/08:26am 14.5 9.6 11.3 81 1.7 NNW 28 63 15 34 999.8 999.8 1.0
21/08:22am 15.8 12.0 12.4 80 1.9 N 24 39 13 21 999.3 999.3 0.8
21/08:00am 17.9 13.2 10.5 62 4.0 N 26 43 14 23 998.7 998.7 0.0
21/07:30am 16.5 14.1 11.4 72 2.8 NNW 15 22 8 12 998.4 998.4 0.0
21/07:00am 16.3 12.4 10.9 70 2.9 NNW 22 32 12 17 998.3 998.3 0.0
21/06:30am 16.0 12.2 11.0 72 2.7 NNW 22 32 12 17 998.3 998.3 0.0
21/06:00am 15.4 11.9 10.9 74 2.4 NNW 20 35 11 19 998.6 998.6 0.0
21/05:30am 15.4 12.0 10.5 72 2.6 N 19 26 10 14 998.8 998.8 0.0
21/05:00am 14.1 13.1 10.9 81 1.7 N 7 17 4 9 999.0 999.0 0.0
21/04:30am 13.8 12.3 10.4 80 1.8 N 9 19 5 10 999.1 999.1 0.0
21/04:00am 14.5 11.8 10.3 76 2.2 NNW 15 20 8 11 999.4 999.4 0.0
21/03:30am 14.2 11.2 10.6 79 1.9 NNW 17 28 9 15 1000.0 1000.0 0.0
21/03:00am 13.6 11.0 10.6 82 1.6 NNW 15 22 8 12 999.9 999.9 0.0
21/02:30am 14.3 12.1 10.9 80 1.8 NNW 13 24 7 13 1000.6 1000.6 0.0
21/02:00am 13.9 11.3 10.7 81 1.7 N 15 20 8 11 1001.0 1001.0 0.0
21/01:30am 13.6 13.5 10.8 83 1.5 NNW 2 7 1 4 1001.1 1001.1 0.0
21/01:00am 13.3 11.9 10.8 85 1.3 NW 9 11 5 6 1001.2 1001.2 0.0
21/12:30am 13.8 12.3 10.6 81 1.7 NNW 9 13 5 7 1001.3 1001.3 0.0
21/12:00am 14.0 11.8 10.8 81 1.7 N 13 17 7 9 1001.8 1001.8 0.0
 
Date/Time
EST
Temp
°C
App
Temp
°C
Dew
Point
°C
Rel
Hum
%
Delta-T
°C
Wind Press
QNH
hPa
Press
MSL
hPa
Rain since
9am
mm
Dir  Spd
km/h
Gust
km/h
Spd
kts
Gust
kts
20/11:30pm 14.4 12.6 10.8 79 1.9 N 11 19 6 10 1002.0 1002.0 0.0
20/11:00pm 15.1 12.9 10.8 75 2.3 NNW 13 19 7 10 1002.0 1002.0 0.0
20/10:30pm 14.6 13.2 10.8 78 2.0 NNW 9 15 5 8 1001.9 1001.9 0.0
20/10:00pm 15.5 11.5 10.6 72 2.6 N 22 33 12 18 1001.9 1001.9 0.0
20/09:30pm 15.7 12.3 10.4 71 2.8 N 19 30 10 16 1002.0 1002.0 0.0
20/09:00pm 15.7 11.6 10.2 70 2.9 N 22 32 12 17 1002.0 1002.0 0.0
20/08:30pm 16.5 13.7 9.9 65 3.5 NNE 15 26 8 14 1001.7 1001.7 0.0
20/08:00pm 16.7 13.2 10.3 66 3.4 N 19 30 10 16 1001.7 1001.7 0.0
20/07:30pm 16.7 13.2 11.0 69 3.1 N 20 32 11 17 1001.8 1001.8 0.0
20/07:00pm 17.1 13.7 11.2 68 3.2 N 20 32 11 17 1001.6 1001.6 0.0
20/06:30pm 17.8 14.6 11.4 66 3.5 N 19 28 10 15 1001.4 1001.4 0.0
20/06:00pm 18.2 15.1 11.7 66 3.6 N 19 28 10 15 1001.0 1001.0 0.0
20/05:30pm 19.2 16.0 11.8 62 4.1 N 20 33 11 18 1001.0 1001.0 0.0
20/05:00pm 20.1 16.2 12.1 60 4.5 N 24 35 13 19 1001.1 1001.1 0.0
20/04:30pm 20.2 17.0 11.8 58 4.7 N 20 30 11 16 1001.2 1001.2 0.0
20/04:00pm 20.4 17.1 11.6 57 4.9 N 20 30 11 16 1001.5 1001.5 0.0
20/03:30pm 20.3 15.5 11.7 57 4.8 N 28 39 15 21 1001.8 1001.8 0.0
20/03:00pm 21.0 16.9 11.5 54 5.3 N 24 33 13 18 1002.1 1002.1 0.0
20/02:30pm 20.6 16.9 11.4 55 5.1 N 22 33 12 18 1002.4 1002.4 0.0
20/02:00pm 20.4 16.7 11.6 57 4.9 N 22 35 12 19 1002.9 1002.9 0.0
20/01:30pm 20.8 16.9 12.1 57 4.9 NNW 24 33 13 18 1003.4 1003.4 0.0
20/01:00pm 20.9 16.9 11.8 56 5.1 N 24 39 13 21 1003.6 1003.6 0.0
20/12:45pm 21.0 16.2 11.5 54 5.3 N 28 46 15 25 1003.8 1003.8 0.0
20/12:30pm 21.3 17.7 11.9 55 5.3 N 22 37 12 20 1004.0 1004.0 0.0
20/12:00pm 19.6 18.6 13.5 68 3.5 NE 11 15 6 8 1004.6 1004.6 0.0
20/11:30am 18.3 16.5 13.4 73 2.8 NE 15 19 8 10 1005.1 1005.1 0.0
20/11:00am 17.6 15.8 13.2 75 2.5 NE 15 22 8 12 1005.7 1005.7 0.0
20/10:30am 17.3 15.6 12.6 74 2.6 NNE 13 19 7 10 1006.4 1006.4 0.0
20/10:00am 16.1 14.9 11.5 74 2.5 N 9 13 5 7 1007.1 1007.1 0.0
20/09:30am 15.7 14.3 11.0 73 2.5 N 9 13 5 7 1007.7 1007.7 0.0
20/09:00am 14.6 14.1 10.8 78 2.0 NW 4 9 2 5 1008.0 1008.0 0.0
20/08:30am 13.4 11.9 10.5 82 1.5 WNW 9 13 5 7 1008.5 1008.5 0.0
20/08:00am 13.7 11.4 10.4 80 1.7 NNW 13 19 7 10 1009.3 1009.3 0.0
20/07:30am 12.3 10.3 10.0 86 1.2 NNW 11 15 6 8 1009.5 1009.5 0.0
20/07:00am 11.3 9.6 9.7 90 0.8 NNW 9 11 5 6 1010.0 1010.0 0.0
20/06:30am 11.3 10.1 9.5 89 0.9 NW 6 7 3 4 1010.0 1010.0 0.0
20/06:00am 12.0 11.9 9.6 85 1.2 CALM 0 6 0 3 1010.2 1010.2 0.0
20/05:30am 11.5 10.1 9.7 89 0.9 NNE 7 9 4 5 1010.6 1010.6 0.0
20/05:00am 11.4 9.6 9.4 87 1.0 N 9 13 5 7 1011.0 1011.0 0.0

Latest Capital City Observations: Canberra | Sydney | Melbourne | Brisbane | Adelaide | Perth | Hobart | Darwin

Other formats

Comma delimited format used in spreadsheet applications
http://www.bom.gov.au/fwo/IDT60901/IDT60901.94975.axf

JavaScript Object Notation format (JSON) in row-major order
http://www.bom.gov.au/fwo/IDT60901/IDT60901.94975.json

Data quality

Most of these data are generated automatically and are frequently updated. Quality checks on data are not normally performed. It is possible for incorrect values to appear. Refer to information at About Latest Weather Observations and please check the disclaimer before using these data.